Time;durP1;ratioP1;P1;durP2;ratioP2;P2;SDS_P1;SDS_P2;PMS_P1;PMS_P2;Temp;Humidity;BMP_temperature;BMP_pressure;BME280_temperature;BME280_humidity;BME280_pressure;Samples;Min_cycle;Max_cycle;Signal;HPM_P1;HPM_P2
2021/01/30 00:00:17;;;;;;;31.30;15.43;;;-5.80;92.00;;;;;;5039590;28;20386;-85
2021/01/30 00:02:42;;;;;;;35.03;17.38;;;-5.80;91.90;;;;;;5057303;28;20017;-85
2021/01/30 00:05:10;;;;;;;30.85;15.52;;;-5.90;91.70;;;;;;5057505;28;20029;-86
2021/01/30 00:07:36;;;;;;;33.92;16.02;;;-5.90;92.10;;;;;;5039333;28;20041;-85
2021/01/30 00:10:02;;;;;;;32.63;15.63;;;-5.80;92.00;;;;;;5039078;28;20052;-85
2021/01/30 00:12:28;;;;;;;36.85;15.93;;;-5.90;92.00;;;;;;5050342;28;20029;-85
2021/01/30 00:14:54;;;;;;;29.88;16.38;;;-5.90;92.00;;;;;;5057030;28;20454;-86
2021/01/30 00:17:21;;;;;;;38.40;17.83;;;-5.90;91.80;;;;;;5057286;28;20049;-85
2021/01/30 00:19:47;;;;;;;39.28;18.00;;;-6.00;91.70;;;;;;5039453;28;20139;-85
2021/01/30 00:22:16;;;;;;;42.65;19.80;;;-6.00;91.60;;;;;;5039083;28;20447;-86
2021/01/30 00:24:46;;;;;;;45.47;19.75;;;-6.10;91.50;;;;;;5056910;28;20024;-85
2021/01/30 00:27:15;;;;;;;43.10;20.75;;;-6.10;91.60;;;;;;5027847;28;20035;-85
2021/01/30 00:29:41;;;;;;;73.13;31.50;;;-6.20;91.70;;;;;;5018976;28;20025;-85
2021/01/30 00:32:09;;;;;;;76.97;32.17;;;-6.20;91.70;;;;;;5019146;28;20049;-85
2021/01/30 00:34:36;;;;;;;77.43;32.20;;;-6.30;91.50;;;;;;5019082;28;20030;-85
2021/01/30 00:37:15;;;;;;;59.90;25.60;;;-6.40;91.20;;;;;;5019131;28;20360;-85
2021/01/30 00:39:42;;;;;;;48.20;22.65;;;-6.40;91.40;;;;;;5019121;28;20033;-85
2021/01/30 00:42:10;;;;;;;34.60;16.33;;;-6.50;91.00;;;;;;5028133;28;20047;-85
2021/01/30 00:44:35;;;;;;;34.78;16.75;;;-6.50;91.50;;;;;;5038591;28;20367;-85
2021/01/30 00:47:01;;;;;;;35.05;14.98;;;-6.50;91.70;;;;;;5038671;28;20028;-85
2021/01/30 00:49:27;;;;;;;41.50;18.35;;;-6.50;91.80;;;;;;5056276;28;20029;-85
2021/01/30 00:51:54;;;;;;;28.45;14.60;;;-6.60;91.50;;;;;;5038543;28;20035;-85
2021/01/30 00:54:20;;;;;;;41.90;18.88;;;-6.60;91.80;;;;;;5038128;28;20049;-85
2021/01/30 00:56:50;;;;;;;47.78;21.20;;;-6.60;91.50;;;;;;5032214;28;20068;-85
2021/01/30 00:59:16;;;;;;;42.47;19.92;;;-6.70;91.40;;;;;;5036246;28;20022;-85
2021/01/30 01:01:42;;;;;;;45.97;20.77;;;-6.70;91.20;;;;;;5018499;28;20116;-85
2021/01/30 01:04:08;;;;;;;55.95;24.02;;;-6.80;91.40;;;;;;5018331;28;20116;-85
2021/01/30 01:06:34;;;;;;;59.78;25.52;;;-6.90;91.30;;;;;;5018365;28;20060;-85
2021/01/30 01:09:01;;;;;;;62.05;27.98;;;-7.00;91.00;;;;;;5018353;28;20021;-85
2021/01/30 01:11:26;;;;;;;80.95;34.47;;;-6.90;91.40;;;;;;5017487;28;20472;-85
2021/01/30 01:13:52;;;;;;;52.70;23.60;;;-7.00;91.20;;;;;;5018348;28;20032;-85
2021/01/30 01:16:19;;;;;;;56.67;26.23;;;-7.00;91.60;;;;;;5035950;28;20025;-85
2021/01/30 01:18:46;;;;;;;52.08;24.05;;;-7.10;91.60;;;;;;5018147;28;20018;-85
2021/01/30 01:21:12;;;;;;;47.63;20.63;;;-7.10;91.50;;;;;;5018219;28;20542;-85
2021/01/30 01:23:41;;;;;;;41.75;17.40;;;-7.10;91.60;;;;;;5018088;28;20026;-85
2021/01/30 01:26:06;;;;;;;40.47;19.50;;;-7.10;91.60;;;;;;5018115;28;20048;-85
2021/01/30 01:28:32;;;;;;;37.97;17.65;;;-7.20;91.60;;;;;;5018188;28;20021;-85
2021/01/30 01:30:58;;;;;;;37.80;19.17;;;-7.20;91.60;;;;;;5017854;28;20033;-85
2021/01/30 01:33:24;;;;;;;41.88;19.65;;;-7.30;91.20;;;;;;5017988;28;20383;-85
2021/01/30 01:35:50;;;;;;;37.03;18.83;;;-7.30;91.40;;;;;;5018020;28;20116;-86
2021/01/30 01:38:16;;;;;;;30.77;16.80;;;-7.30;91.60;;;;;;5034730;28;20045;-85
2021/01/30 01:40:42;;;;;;;35.90;17.20;;;-7.40;91.70;;;;;;5017806;28;20033;-85
2021/01/30 01:43:19;;;;;;;44.20;21.02;;;-7.30;91.70;;;;;;5018102;28;20075;-86
2021/01/30 01:46:12;;;;;;;34.00;17.27;;;-7.40;91.40;;;;;;5017671;28;20059;-85
2021/01/30 01:48:43;;;;;;;53.17;23.23;;;-7.50;91.50;;;;;;5024444;28;20175;-85
2021/01/30 01:51:14;;;;;;;58.45;26.23;;;-7.50;91.40;;;;;;5035276;28;20518;-85
2021/01/30 01:53:43;;;;;;;88.00;33.47;;;-7.50;91.40;;;;;;5017728;28;20103;-85
2021/01/30 01:56:20;;;;;;;156.80;52.95;;;-7.60;91.60;;;;;;5035170;28;20091;-85
2021/01/30 01:58:49;;;;;;;216.82;67.32;;;-7.60;91.50;;;;;;5030084;28;20057;-85
2021/01/30 02:01:17;;;;;;;164.55;59.35;;;-7.60;91.60;;;;;;5037294;28;20017;-86
2021/01/30 02:03:49;;;;;;;153.73;55.28;;;-7.70;91.40;;;;;;5037405;28;20044;-85
2021/01/30 02:06:14;;;;;;;174.73;60.45;;;-7.70;91.30;;;;;;5037270;28;20032;-85
2021/01/30 02:08:40;;;;;;;165.48;57.72;;;-7.70;91.50;;;;;;5037158;28;20017;-86
2021/01/30 02:11:06;;;;;;;123.60;45.55;;;-7.80;91.40;;;;;;5054953;28;20044;-85
2021/01/30 02:13:41;;;;;;;119.63;43.78;;;-7.80;91.30;;;;;;5018570;28;20088;-85
2021/01/30 02:16:13;;;;;;;113.93;42.72;;;-7.80;91.50;;;;;;5017443;28;20468;-85
2021/01/30 02:18:38;;;;;;;84.00;33.60;;;-7.80;91.40;;;;;;5017273;28;20022;-85
2021/01/30 02:21:39;;;;;;;70.43;29.42;;;-7.90;91.50;;;;;;5017201;28;20125;-86
2021/01/30 02:24:28;;;;;;;84.55;33.05;;;-7.90;91.50;;;;;;4983646;28;20084;-85
2021/01/30 02:27:07;;;;;;;82.40;33.42;;;-7.90;91.60;;;;;;5016949;28;20026;-86
2021/01/30 02:29:59;;;;;;;72.93;30.83;;;-7.90;91.60;;;;;;5034791;28;20100;-86
2021/01/30 02:32:46;;;;;;;65.28;29.17;;;-7.90;91.30;;;;;;5017111;28;20022;-86
2021/01/30 02:35:28;;;;;;;81.43;34.67;;;-7.90;91.60;;;;;;5016849;28;20017;-86
2021/01/30 02:38:04;;;;;;;81.95;34.15;;;-7.90;91.60;;;;;;5017096;28;20456;-85
2021/01/30 02:40:38;;;;;;;71.78;32.13;;;-7.90;91.50;;;;;;5034512;28;20029;-85
2021/01/30 02:43:11;;;;;;;84.63;35.63;;;-7.90;91.60;;;;;;5030519;28;20021;-85
2021/01/30 02:45:50;;;;;;;69.00;32.28;;;-7.90;91.60;;;;;;5054412;28;20086;-84
2021/01/30 02:48:23;;;;;;;80.43;36.75;;;-7.90;91.60;;;;;;5036772;28;20028;-85
2021/01/30 02:50:54;;;;;;;102.20;40.85;;;-7.90;91.70;;;;;;5034091;28;20034;-85
2021/01/30 02:53:28;;;;;;;115.35;48.47;;;-7.90;91.80;;;;;;5037354;28;20040;-85
2021/01/30 02:55:57;;;;;;;122.82;50.00;;;-7.90;91.70;;;;;;5056177;28;20028;-86
2021/01/30 02:58:28;;;;;;;102.88;46.22;;;-7.90;91.40;;;;;;5056413;28;20425;-85
2021/01/30 03:00:58;;;;;;;103.22;44.17;;;-7.90;91.70;;;;;;5074213;28;20406;-86
2021/01/30 03:03:24;;;;;;;93.43;41.40;;;-7.80;91.80;;;;;;5055431;28;20031;-86
2021/01/30 03:05:55;;;;;;;93.43;40.88;;;-7.90;91.60;;;;;;5036599;28;20124;-86
2021/01/30 03:08:36;;;;;;;77.97;36.85;;;-7.90;91.70;;;;;;5036627;28;20074;-85
2021/01/30 03:11:33;;;;;;;77.53;34.85;;;-7.90;91.70;;;;;;5036290;28;20471;-86
2021/01/30 03:14:19;;;;;;;76.28;34.65;;;-7.80;91.80;;;;;;5036416;28;20029;-86
2021/01/30 03:16:46;;;;;;;76.15;33.33;;;-7.80;91.80;;;;;;5050552;28;20031;-85
2021/01/30 03:19:23;;;;;;;66.35;30.30;;;-7.80;91.70;;;;;;5056001;28;20029;-85
2021/01/30 03:21:54;;;;;;;72.25;32.75;;;-7.70;91.70;;;;;;5042245;28;20024;-85
2021/01/30 03:24:19;;;;;;;82.70;36.03;;;-7.70;91.80;;;;;;5036548;28;20033;-86
2021/01/30 03:26:46;;;;;;;76.70;34.45;;;-7.70;91.70;;;;;;5036347;28;20119;-85
2021/01/30 03:29:18;;;;;;;77.40;34.75;;;-7.70;91.70;;;;;;5035972;28;20031;-85
2021/01/30 03:31:44;;;;;;;70.55;34.15;;;-7.70;91.70;;;;;;5036419;28;20021;-85
2021/01/30 03:34:10;;;;;;;69.10;33.17;;;-7.70;91.70;;;;;;5035491;28;20059;-85
2021/01/30 03:36:36;;;;;;;83.78;36.60;;;-7.70;91.70;;;;;;5036058;28;20048;-85
2021/01/30 03:39:08;;;;;;;77.05;36.22;;;-7.70;91.80;;;;;;5035477;28;20052;-85
2021/01/30 03:41:34;;;;;;;81.18;36.63;;;-7.70;91.70;;;;;;5035331;28;20025;-85
2021/01/30 03:43:59;;;;;;;77.18;34.33;;;-7.70;91.80;;;;;;5036129;28;20067;-85
2021/01/30 03:46:25;;;;;;;75.60;34.53;;;-7.70;91.90;;;;;;5065158;28;20056;-85
2021/01/30 03:48:51;;;;;;;67.72;31.88;;;-7.60;91.90;;;;;;5056033;28;20063;-85
2021/01/30 03:51:17;;;;;;;87.90;38.72;;;-7.60;91.90;;;;;;5056086;28;20039;-86
2021/01/30 03:53:43;;;;;;;78.15;37.97;;;-7.70;91.80;;;;;;5057151;28;20139;-86
2021/01/30 03:56:10;;;;;;;77.45;36.67;;;-7.70;91.70;;;;;;5072756;28;20112;-85
2021/01/30 03:58:38;;;;;;;75.15;35.88;;;-7.70;91.60;;;;;;5072835;28;20399;-85
2021/01/30 04:01:04;;;;;;;79.03;34.30;;;-7.70;91.70;;;;;;5064186;28;20024;-86
2021/01/30 04:03:30;;;;;;;75.15;34.58;;;-7.70;91.70;;;;;;5056222;28;20021;-86
2021/01/30 04:05:55;;;;;;;76.72;34.90;;;-7.70;91.80;;;;;;5056195;28;20359;-86
2021/01/30 04:08:21;;;;;;;81.53;36.67;;;-7.70;91.50;;;;;;5056085;28;20025;-85
2021/01/30 04:10:47;;;;;;;82.90;36.45;;;-7.70;91.40;;;;;;5056141;28;20044;-86
2021/01/30 04:13:13;;;;;;;81.10;37.33;;;-7.70;91.30;;;;;;5057204;28;20028;-85
2021/01/30 04:15:42;;;;;;;84.70;38.78;;;-7.80;91.10;;;;;;5051241;28;20029;-86
2021/01/30 04:18:08;;;;;;;81.70;37.63;;;-7.90;91.00;;;;;;5036219;28;20029;-86
2021/01/30 04:20:34;;;;;;;74.18;32.55;;;-7.90;91.20;;;;;;5036031;28;20045;-86
2021/01/30 04:23:00;;;;;;;68.88;32.30;;;-7.90;91.50;;;;;;5035715;28;20490;-86
2021/01/30 04:25:27;;;;;;;59.83;28.42;;;-7.90;91.50;;;;;;5035692;28;20056;-86
2021/01/30 04:27:54;;;;;;;80.07;35.38;;;-7.90;91.60;;;;;;5035831;28;20079;-86
2021/01/30 04:30:23;;;;;;;63.83;30.15;;;-7.90;91.60;;;;;;5036903;28;20483;-85
2021/01/30 04:32:49;;;;;;;68.15;30.80;;;-7.90;91.60;;;;;;5075445;28;20397;-85
2021/01/30 04:35:17;;;;;;;64.35;30.42;;;-7.90;91.60;;;;;;5075432;28;20024;-86
2021/01/30 04:37:43;;;;;;;68.95;30.98;;;-7.90;91.50;;;;;;5075291;28;20021;-85
2021/01/30 04:40:15;;;;;;;68.95;30.85;;;-7.90;91.20;;;;;;5075319;28;20107;-85
2021/01/30 04:42:56;;;;;;;55.67;25.63;;;-8.00;91.40;;;;;;5075381;28;20067;-85
2021/01/30 04:45:35;;;;;;;68.60;28.45;;;-7.90;91.80;;;;;;5075554;28;20107;-85
2021/01/30 04:48:37;;;;;;;66.63;28.98;;;-7.90;91.80;;;;;;5055762;28;20079;-85
2021/01/30 04:51:23;;;;;;;72.70;31.52;;;-7.90;91.80;;;;;;5055399;28;20021;-85
2021/01/30 04:53:58;;;;;;;61.78;29.40;;;-7.90;91.50;;;;;;5054712;28;20102;-86
2021/01/30 04:56:41;;;;;;;62.90;30.50;;;-7.90;91.60;;;;;;5055113;28;20080;-86
2021/01/30 04:59:34;;;;;;;67.95;32.97;;;-7.80;91.80;;;;;;5054829;28;20124;-86
2021/01/30 05:02:03;;;;;;;67.82;31.25;;;-7.80;91.80;;;;;;5056143;28;20057;-85
2021/01/30 05:04:35;;;;;;;76.05;36.17;;;-7.70;91.90;;;;;;5054449;28;20123;-83
2021/01/30 05:07:13;;;;;;;82.95;37.17;;;-7.70;91.80;;;;;;5054891;28;20071;-83
2021/01/30 05:09:56;;;;;;;76.00;34.58;;;-7.70;91.90;;;;;;5055055;28;20029;-83
2021/01/30 05:12:27;;;;;;;87.03;38.92;;;-7.60;92.00;;;;;;5055492;28;20114;-83
2021/01/30 05:15:16;;;;;;;73.95;33.90;;;-7.60;92.00;;;;;;5054059;28;20025;-83
2021/01/30 05:17:57;;;;;;;115.85;46.20;;;-7.50;92.10;;;;;;5036657;28;20041;-84
2021/01/30 05:20:23;;;;;;;96.50;43.08;;;-7.50;92.10;;;;;;5054475;28;20459;-83
2021/01/30 05:22:51;;;;;;;100.35;45.80;;;-7.50;92.00;;;;;;5054147;28;20112;-83
2021/01/30 05:25:21;;;;;;;79.63;37.88;;;-7.40;92.00;;;;;;5056506;28;20028;-86
2021/01/30 05:28:13;;;;;;;109.45;47.15;;;-7.30;92.10;;;;;;5054571;28;20407;-88
2021/01/30 05:30:54;;;;;;;96.68;42.83;;;-7.30;92.20;;;;;;5045586;28;20044;-86
2021/01/30 05:33:30;;;;;;;115.05;47.15;;;-7.20;92.20;;;;;;5074344;28;20390;-86
2021/01/30 05:36:14;;;;;;;101.60;43.47;;;-7.10;92.20;;;;;;5074675;28;20028;-85
2021/01/30 05:38:40;;;;;;;106.15;47.25;;;-7.10;92.20;;;;;;5074611;28;20052;-86
2021/01/30 05:41:31;;;;;;;118.45;51.63;;;-7.00;92.20;;;;;;5074594;28;20082;-86
2021/01/30 05:44:24;;;;;;;106.78;45.50;;;-7.00;92.10;;;;;;5074453;28;20021;-85
2021/01/30 05:46:52;;;;;;;88.90;41.97;;;-6.90;92.00;;;;;;5074303;28;20024;-86
2021/01/30 05:49:27;;;;;;;85.90;40.28;;;-6.90;92.00;;;;;;5075510;28;20031;-86
2021/01/30 05:52:14;;;;;;;89.13;40.03;;;-6.90;92.10;;;;;;5075649;28;20032;-85
2021/01/30 05:54:40;;;;;;;107.78;46.92;;;-6.80;92.20;;;;;;5073890;28;20379;-85
2021/01/30 05:57:05;;;;;;;104.53;45.88;;;-6.80;91.50;;;;;;5074029;28;20023;-85
2021/01/30 05:59:33;;;;;;;126.72;55.00;;;-6.70;91.80;;;;;;5074052;28;20111;-86
2021/01/30 06:02:20;;;;;;;102.70;43.17;;;-6.70;91.70;;;;;;5074001;28;20485;-85
2021/01/30 06:04:46;;;;;;;98.95;45.53;;;-6.60;92.10;;;;;;5074094;28;20036;-85
2021/01/30 06:07:36;;;;;;;96.60;43.20;;;-6.50;92.10;;;;;;5074032;28;20032;-86
2021/01/30 06:10:38;;;;;;;81.40;37.72;;;-6.40;92.10;;;;;;5065294;28;20051;-89
2021/01/30 06:13:19;;;;;;;81.43;37.72;;;-6.30;92.20;;;;;;4977620;28;20061;-85
2021/01/30 06:15:54;;;;;;;76.90;34.53;;;-6.20;92.20;;;;;;5063851;28;20036;-85
2021/01/30 06:18:29;;;;;;;85.78;38.38;;;-6.20;92.20;;;;;;5073941;28;20105;-85
2021/01/30 06:21:19;;;;;;;73.10;35.78;;;-6.10;92.20;;;;;;5072896;28;20028;-86
2021/01/30 06:24:05;;;;;;;75.57;34.80;;;-6.00;92.20;;;;;;5071875;28;20027;-85
2021/01/30 06:26:35;;;;;;;88.22;40.08;;;-5.90;92.20;;;;;;5054860;28;20836;-86
2021/01/30 06:29:04;;;;;;;90.80;42.50;;;-5.90;92.20;;;;;;5071836;28;20493;-85
2021/01/30 06:31:39;;;;;;;80.18;37.15;;;-5.80;92.10;;;;;;5072828;28;20386;-85
2021/01/30 06:34:28;;;;;;;91.47;42.10;;;-5.70;92.10;;;;;;5071323;28;20032;-85
2021/01/30 06:36:54;;;;;;;103.72;44.92;;;-5.60;92.10;;;;;;5071616;28;20025;-86
2021/01/30 06:39:36;;;;;;;86.68;41.17;;;-5.60;92.00;;;;;;5071639;28;20036;-86
2021/01/30 06:42:09;;;;;;;92.93;43.08;;;-5.50;92.10;;;;;;5071565;28;20024;-86
2021/01/30 06:44:37;;;;;;;87.75;40.53;;;-5.40;92.10;;;;;;5071582;28;20032;-85
2021/01/30 06:47:16;;;;;;;85.20;40.33;;;-5.40;92.10;;;;;;5071553;28;20028;-85
2021/01/30 06:49:48;;;;;;;81.90;39.88;;;-5.30;92.10;;;;;;5071411;28;20028;-85
2021/01/30 06:52:23;;;;;;;93.40;43.92;;;-5.20;92.10;;;;;;5071431;28;20028;-86
2021/01/30 06:55:06;;;;;;;118.70;60.72;;;-5.10;92.10;;;;;;5071134;28;20059;-85
2021/01/30 06:57:37;;;;;;;101.03;49.83;;;-5.00;92.10;;;;;;5071494;28;20024;-85
2021/01/30 07:00:17;;;;;;;91.28;46.65;;;-5.00;92.20;;;;;;5071336;28;20031;-85
2021/01/30 07:02:46;;;;;;;87.53;45.03;;;-4.90;92.20;;;;;;5071432;28;20067;-85
2021/01/30 07:05:50;;;;;;;79.47;40.83;;;-4.80;92.30;;;;;;5072393;28;20029;-85
2021/01/30 07:08:30;;;;;;;84.35;41.17;;;-4.70;92.40;;;;;;5056366;28;20064;-86
2021/01/30 07:11:07;;;;;;;96.70;46.58;;;-4.60;92.50;;;;;;5072330;28;20028;-87
2021/01/30 07:13:53;;;;;;;85.80;41.53;;;-4.50;92.10;;;;;;5071277;28;20082;-85
2021/01/30 07:16:34;;;;;;;79.28;39.97;;;-4.40;92.10;;;;;;5072266;28;20025;-85
2021/01/30 07:19:18;;;;;;;77.93;37.05;;;-4.30;92.10;;;;;;5071088;28;20054;-85
2021/01/30 07:21:52;;;;;;;71.10;34.40;;;-4.10;92.40;;;;;;5073450;28;20043;-83
2021/01/30 07:24:34;;;;;;;71.63;33.30;;;-4.00;92.40;;;;;;5073987;28;20032;-85
2021/01/30 07:27:14;;;;;;;66.07;32.78;;;-3.90;92.20;;;;;;5072945;28;20481;-85
2021/01/30 07:30:04;;;;;;;65.47;32.08;;;-3.70;92.20;;;;;;5074196;28;20029;-85
2021/01/30 07:32:53;;;;;;;79.60;36.55;;;-3.60;92.20;;;;;;5073062;28;20050;-85
2021/01/30 07:36:00;;;;;;;59.63;31.77;;;-3.50;92.20;;;;;;5072575;28;20036;-85
2021/01/30 07:38:45;;;;;;;56.88;27.90;;;-3.30;92.20;;;;;;5059102;28;20060;-84
2021/01/30 07:41:18;;;;;;;57.17;28.42;;;-3.20;91.80;;;;;;5077952;28;20020;-84
2021/01/30 07:43:50;;;;;;;50.88;25.70;;;-3.10;91.70;;;;;;5077523;28;20032;-85
2021/01/30 07:46:31;;;;;;;47.85;24.98;;;-3.00;91.60;;;;;;5076606;28;20027;-85
2021/01/30 07:49:01;;;;;;;47.05;25.40;;;-3.00;91.50;;;;;;5077476;28;20028;-85
2021/01/30 07:51:33;;;;;;;48.78;25.75;;;-2.90;91.40;;;;;;5076431;28;20378;-85
2021/01/30 07:54:01;;;;;;;50.25;25.33;;;-2.80;91.80;;;;;;5075530;28;20053;-84
2021/01/30 07:56:45;;;;;;;50.15;27.10;;;-2.80;91.60;;;;;;5077376;28;20045;-85
2021/01/30 07:59:24;;;;;;;51.30;24.95;;;-2.80;91.00;;;;;;5076286;28;20545;-84
2021/01/30 08:02:05;;;;;;;52.20;26.77;;;-2.70;91.30;;;;;;5077192;28;20017;-85
2021/01/30 08:05:01;;;;;;;50.67;26.83;;;-2.60;90.60;;;;;;5075906;28;20078;-85
2021/01/30 08:07:53;;;;;;;91.75;41.60;;;-2.60;90.90;;;;;;5077109;28;20028;-85
2021/01/30 08:11:12;;;;;;;56.78;29.35;;;-2.50;91.10;;;;;;5045899;28;20040;-85
2021/01/30 08:14:06;;;;;;;54.78;27.65;;;-2.40;90.50;;;;;;4979520;28;20026;-85
2021/01/30 08:17:10;;;;;;;57.42;29.08;;;-2.30;90.90;;;;;;5075497;28;20123;-85
2021/01/30 08:19:48;;;;;;;54.55;27.55;;;-2.30;90.70;;;;;;5058074;28;20028;-84
2021/01/30 08:22:51;;;;;;;67.63;33.67;;;-2.20;91.20;;;;;;5074750;28;20023;-85
2021/01/30 08:25:35;;;;;;;54.50;27.85;;;-2.10;90.00;;;;;;5074877;28;20490;-84
2021/01/30 08:28:20;;;;;;;56.17;28.48;;;-2.10;90.50;;;;;;5074735;28;20017;-84
2021/01/30 08:30:52;;;;;;;50.33;28.15;;;-2.10;88.60;;;;;;5073399;28;20020;-85
2021/01/30 08:33:19;;;;;;;56.75;29.58;;;-2.00;90.80;;;;;;5073513;28;20032;-85
2021/01/30 08:35:50;;;;;;;63.53;32.05;;;-1.90;91.20;;;;;;5073261;28;20055;-84
2021/01/30 08:38:16;;;;;;;72.90;36.97;;;-1.90;90.50;;;;;;5073462;28;20052;-84
2021/01/30 08:40:50;;;;;;;77.13;36.65;;;-1.80;90.80;;;;;;5074570;28;20532;-85
2021/01/30 08:43:42;;;;;;;62.65;31.90;;;-1.70;90.90;;;;;;5073433;28;20021;-85
2021/01/30 08:46:25;;;;;;;66.57;35.40;;;-1.70;91.30;;;;;;5073327;28;20027;-84
2021/01/30 08:49:16;;;;;;;63.33;32.85;;;-1.60;91.30;;;;;;5072603;28;20393;-85
2021/01/30 08:51:42;;;;;;;62.58;30.85;;;-1.50;90.80;;;;;;5073204;28;20033;-85
2021/01/30 08:54:20;;;;;;;71.47;35.30;;;-1.50;90.90;;;;;;5072735;28;20115;-85
2021/01/30 08:56:51;;;;;;;71.82;33.97;;;-1.50;90.50;;;;;;5072885;28;20027;-83
2021/01/30 08:59:41;;;;;;;75.28;35.03;;;-1.50;90.50;;;;;;5074141;28;20024;-85
2021/01/30 09:02:10;;;;;;;79.13;35.55;;;-1.50;90.70;;;;;;5072791;28;20410;-84
2021/01/30 09:04:41;;;;;;;75.40;35.28;;;-1.60;90.30;;;;;;5073965;28;20059;-84
2021/01/30 09:07:07;;;;;;;75.88;34.55;;;-1.70;90.10;;;;;;5072635;28;20029;-85
2021/01/30 09:09:32;;;;;;;75.82;33.97;;;-1.70;90.60;;;;;;5074047;28;20058;-84
2021/01/30 09:12:02;;;;;;;70.20;30.95;;;-1.70;90.60;;;;;;5073900;28;20048;-84
2021/01/30 09:14:28;;;;;;;63.90;29.67;;;-1.70;90.70;;;;;;5072567;28;20036;-85
2021/01/30 09:16:56;;;;;;;65.68;29.98;;;-1.70;90.90;;;;;;5072767;28;20463;-84
2021/01/30 09:19:28;;;;;;;57.70;26.83;;;-1.70;90.90;;;;;;5073682;28;20029;-88
2021/01/30 09:22:05;;;;;;;68.95;29.90;;;-1.60;91.00;;;;;;5074192;28;20023;-85
2021/01/30 09:24:56;;;;;;;81.05;35.53;;;-1.60;91.00;;;;;;5074319;28;20066;-85
2021/01/30 09:27:31;;;;;;;64.22;30.38;;;-1.70;90.80;;;;;;5074229;28;20028;-84
2021/01/30 09:30:23;;;;;;;70.22;32.05;;;-1.70;91.20;;;;;;5074223;28;20043;-85
2021/01/30 09:32:49;;;;;;;79.63;34.13;;;-1.70;91.10;;;;;;5073877;28;20346;-85
2021/01/30 09:35:25;;;;;;;83.10;35.15;;;-1.70;91.00;;;;;;5075309;28;20043;-84
2021/01/30 09:37:51;;;;;;;80.38;35.70;;;-1.70;91.20;;;;;;5074122;28;20023;-84
2021/01/30 09:40:25;;;;;;;71.95;35.78;;;-1.70;91.10;;;;;;5073956;28;20024;-85
2021/01/30 09:43:07;;;;;;;72.93;34.05;;;-1.70;91.20;;;;;;5073607;28;20021;-85
2021/01/30 09:45:35;;;;;;;64.43;32.75;;;-1.70;91.00;;;;;;5074041;28;20370;-85
2021/01/30 09:48:11;;;;;;;62.03;30.95;;;-1.60;91.40;;;;;;5073889;28;20040;-85
2021/01/30 09:50:45;;;;;;;65.18;33.95;;;-1.50;91.50;;;;;;5073338;28;20119;-85
2021/01/30 09:53:22;;;;;;;56.42;31.23;;;-1.60;91.30;;;;;;5074855;28;20017;-85
2021/01/30 09:55:59;;;;;;;55.83;29.95;;;-1.50;91.20;;;;;;5056955;28;20025;-85
2021/01/30 09:58:25;;;;;;;60.92;32.88;;;-1.50;91.50;;;;;;5056348;28;20028;-84
2021/01/30 10:00:51;;;;;;;62.83;33.92;;;-1.50;91.40;;;;;;5056287;28;20028;-85
2021/01/30 10:03:22;;;;;;;60.65;32.53;;;-1.50;91.50;;;;;;5056823;28;20070;-85
2021/01/30 10:05:52;;;;;;;62.78;32.67;;;-1.40;91.60;;;;;;5056808;28;20031;-85
2021/01/30 10:08:23;;;;;;;67.85;33.90;;;-1.50;91.50;;;;;;5056655;28;20032;-84
2021/01/30 10:10:59;;;;;;;67.93;36.85;;;-1.40;91.80;;;;;;5056818;28;20103;-84
2021/01/30 10:13:25;;;;;;;66.95;37.40;;;-1.40;91.70;;;;;;5074727;28;20078;-85
2021/01/30 10:15:54;;;;;;;105.75;54.47;;;-1.30;91.90;;;;;;5056725;28;20024;-85
2021/01/30 10:18:22;;;;;;;72.45;37.45;;;-1.30;91.80;;;;;;5056990;28;20020;-84
2021/01/30 10:20:51;;;;;;;87.53;51.70;;;-1.10;92.00;;;;;;5056456;28;20024;-87
2021/01/30 10:23:45;;;;;;;173.45;99.88;;;-1.10;91.80;;;;;;5054610;28;20565;-84
2021/01/30 10:26:21;;;;;;;95.53;50.35;;;-1.00;91.90;;;;;;5054603;28;20470;-84
2021/01/30 10:29:03;;;;;;;85.20;45.22;;;-1.00;91.60;;;;;;5054570;28;20032;-85
2021/01/30 10:31:44;;;;;;;77.32;40.55;;;-1.10;91.60;;;;;;5054914;28;20058;-84
2021/01/30 10:34:15;;;;;;;;;;;-1.00;91.50;;;;;;5054924;28;20028;-85
2021/01/30 10:36:47;;;;;;;70.60;37.13;;;-1.00;91.60;;;;;;5072433;28;19905;-85
2021/01/30 10:39:14;;;;;;;65.90;34.50;;;-1.00;91.50;;;;;;5054511;28;20050;-85
2021/01/30 10:41:41;;;;;;;73.32;37.58;;;-1.00;91.70;;;;;;5054350;28;20027;-85
2021/01/30 10:44:08;;;;;;;70.97;37.50;;;-0.90;91.80;;;;;;5054402;28;20040;-84
2021/01/30 10:46:43;;;;;;;73.78;38.53;;;-1.00;91.50;;;;;;5054282;28;20386;-85
2021/01/30 10:49:23;;;;;;;67.50;34.80;;;-1.00;91.70;;;;;;5054338;28;20543;-84
2021/01/30 10:52:04;;;;;;;74.20;38.97;;;-0.90;91.80;;;;;;5054122;28;20485;-85
2021/01/30 10:54:32;;;;;;;75.22;38.58;;;-0.90;91.90;;;;;;5071895;28;20101;-85
2021/01/30 10:57:10;;;;;;;73.82;39.92;;;-0.80;92.00;;;;;;5072029;28;20028;-85
2021/01/30 10:59:48;;;;;;;76.10;39.92;;;-0.80;91.70;;;;;;5054391;28;20021;-85
2021/01/30 11:02:26;;;;;;;74.15;37.20;;;-0.80;92.00;;;;;;5054296;28;20028;-85
2021/01/30 11:05:20;;;;;;;73.00;37.00;;;-0.80;91.80;;;;;;5071972;28;20028;-85
2021/01/30 11:07:50;;;;;;;79.60;39.47;;;-0.80;91.80;;;;;;5051746;28;20490;-84
2021/01/30 11:10:31;;;;;;;72.30;36.40;;;-0.80;92.00;;;;;;5072528;28;20024;-85
2021/01/30 11:13:09;;;;;;;;;;;-0.70;92.00;;;;;;5076553;28;20032;-85
2021/01/30 11:15:40;;;;;;;72.75;36.80;;;-0.70;92.00;;;;;;5058221;28;19999;-85
2021/01/30 11:18:28;;;;;;;66.93;35.25;;;-0.70;92.10;;;;;;5075946;28;20016;-85
2021/01/30 11:20:55;;;;;;;79.20;39.00;;;-0.70;92.00;;;;;;5076860;28;20052;-85
2021/01/30 11:23:47;;;;;;;79.50;40.60;;;-0.70;92.00;;;;;;5059931;28;20522;-85
2021/01/30 11:26:16;;;;;;;81.18;41.08;;;-0.80;92.10;;;;;;5077956;28;20020;-84
2021/01/30 11:28:44;;;;;;;73.78;37.78;;;-0.70;92.30;;;;;;5077716;28;20103;-85
2021/01/30 11:31:11;;;;;;;78.90;39.97;;;-0.70;92.30;;;;;;5059983;28;20484;-85
2021/01/30 11:33:37;;;;;;;81.38;43.38;;;-0.70;92.40;;;;;;5059806;28;20470;-85
2021/01/30 11:36:05;;;;;;;91.35;42.92;;;-0.70;92.30;;;;;;5059557;28;20031;-85
2021/01/30 11:38:31;;;;;;;83.38;41.42;;;-0.70;92.40;;;;;;5059600;28;20405;-85
2021/01/30 11:40:59;;;;;;;86.55;44.05;;;-0.60;92.50;;;;;;5059762;28;20025;-85
2021/01/30 11:43:25;;;;;;;94.13;49.47;;;-0.50;92.50;;;;;;5059522;28;20115;-85
2021/01/30 11:45:52;;;;;;;89.57;47.53;;;-0.50;92.60;;;;;;5059408;28;20531;-86
2021/01/30 11:48:20;;;;;;;86.97;44.33;;;-0.40;92.60;;;;;;5077080;28;20371;-85
2021/01/30 11:50:46;;;;;;;88.97;45.33;;;-0.40;92.50;;;;;;5059361;28;20036;-85
2021/01/30 11:53:18;;;;;;;88.93;46.22;;;-0.40;92.50;;;;;;5058992;28;20485;-85
2021/01/30 11:55:44;;;;;;;88.50;43.08;;;-0.40;92.50;;;;;;5059271;28;20462;-85
2021/01/30 11:58:11;;;;;;;87.07;42.78;;;-0.40;92.60;;;;;;5059212;28;20020;-85
2021/01/30 12:00:37;;;;;;;93.00;43.88;;;-0.30;92.60;;;;;;5059422;28;20016;-86
2021/01/30 12:03:04;;;;;;;82.03;43.13;;;-0.30;92.60;;;;;;5059275;28;20074;-86
2021/01/30 12:05:30;;;;;;;88.28;44.03;;;-0.30;92.60;;;;;;5059615;28;20033;-86
2021/01/30 12:07:56;;;;;;;96.47;48.47;;;-0.20;92.60;;;;;;5059113;28;20029;-85
2021/01/30 12:10:22;;;;;;;92.55;47.58;;;-0.20;92.70;;;;;;5059245;28;20031;-85
2021/01/30 12:12:48;;;;;;;84.65;42.50;;;-0.20;92.60;;;;;;5059099;28;20123;-85
2021/01/30 12:15:13;;;;;;;88.60;46.03;;;-0.20;92.70;;;;;;5059162;28;20017;-85
2021/01/30 12:17:42;;;;;;;89.97;48.42;;;-0.20;92.70;;;;;;5077090;28;20024;-85
2021/01/30 12:20:11;;;;;;;92.82;48.40;;;-0.20;92.70;;;;;;5076707;28;20389;-86
2021/01/30 12:22:38;;;;;;;94.43;47.53;;;-0.10;92.70;;;;;;5056276;28;20492;-85
2021/01/30 12:25:05;;;;;;;91.45;46.40;;;-0.10;92.70;;;;;;5074915;28;20033;-85
2021/01/30 12:27:31;;;;;;;104.05;50.38;;;-0.10;92.80;;;;;;5057148;28;20071;-85
2021/01/30 12:29:56;;;;;;;94.70;48.55;;;-0.10;92.80;;;;;;5074568;28;20486;-85
2021/01/30 12:32:22;;;;;;;99.13;48.53;;;0.00;92.80;;;;;;5056859;28;20074;-85
2021/01/30 12:34:48;;;;;;;109.05;54.05;;;0.00;92.80;;;;;;5056725;28;20111;-86
2021/01/30 12:37:13;;;;;;;108.10;58.50;;;0.10;92.90;;;;;;5056729;28;20028;-86
2021/01/30 12:39:39;;;;;;;120.55;61.72;;;0.10;92.90;;;;;;5056953;28;20028;-85
2021/01/30 12:42:05;;;;;;;112.93;57.47;;;0.10;92.90;;;;;;5056839;28;20020;-86
2021/01/30 12:44:31;;;;;;;150.88;85.53;;;0.10;92.90;;;;;;5056919;28;20033;-85
2021/01/30 12:46:58;;;;;;;124.25;62.72;;;0.10;93.00;;;;;;5056808;28;20437;-85
2021/01/30 12:49:23;;;;;;;133.68;66.97;;;0.20;93.10;;;;;;5074816;28;20373;-86
2021/01/30 12:51:49;;;;;;;135.48;69.70;;;0.20;93.10;;;;;;5056840;28;20386;-86
2021/01/30 12:54:18;;;;;;;170.25;83.95;;;0.20;93.30;;;;;;5062504;28;20139;-86
2021/01/30 12:56:44;;;;;;;164.48;84.57;;;0.20;93.50;;;;;;5073358;28;20021;-86